Time;durP1;ratioP1;P1;durP2;ratioP2;P2;SDS_P1;SDS_P2;PMS_P1;PMS_P2;Temp;Humidity;BMP_temperature;BMP_pressure;BME280_temperature;BME280_humidity;BME280_pressure;Samples;Min_cycle;Max_cycle;Signal;HPM_P1;HPM_P2
2024/03/27 00:01:31;;;;;;;3.35;1.80;;;;;;;11.25;100.00;95952.47;5053601;28;20037;-51
2024/03/27 00:03:57;;;;;;;5.05;2.28;;;;;;;11.25;100.00;95950.56;5046754;28;20060;-51
2024/03/27 00:06:22;;;;;;;6.25;2.17;;;;;;;11.27;100.00;95937.56;5047559;28;20094;-51
2024/03/27 00:08:48;;;;;;;3.72;2.00;;;;;;;11.25;100.00;95933.50;5058167;28;20401;-51
2024/03/27 00:11:13;;;;;;;5.40;1.70;;;;;;;11.16;100.00;95928.69;5052395;28;20527;-51
2024/03/27 00:13:39;;;;;;;6.45;2.00;;;;;;;11.43;100.00;95934.78;5057554;28;20104;-51
2024/03/27 00:16:04;;;;;;;3.33;2.00;;;;;;;11.34;100.00;95926.41;5054799;28;20029;-51
2024/03/27 00:18:30;;;;;;;5.95;2.08;;;;;;;11.37;100.00;95920.44;5052248;28;20021;-51
2024/03/27 00:20:55;;;;;;;3.03;1.98;;;;;;;11.32;100.00;95905.06;5064950;28;20032;-52
2024/03/27 00:23:21;;;;;;;3.53;1.85;;;;;;;11.39;100.00;95919.06;5050817;28;20025;-52
2024/03/27 00:25:55;;;;;;;3.45;2.05;;;;;;;11.39;100.00;95931.81;5055452;28;20376;-51
2024/03/27 00:28:20;;;;;;;6.82;2.13;;;;;;;11.30;100.00;95926.19;5046641;28;20028;-52
2024/03/27 00:30:46;;;;;;;4.70;2.03;;;;;;;11.26;100.00;95918.88;5046416;28;20381;-52
2024/03/27 00:33:14;;;;;;;4.63;1.83;;;;;;;11.20;100.00;95920.81;5048432;28;20033;-52
2024/03/27 00:35:40;;;;;;;3.83;2.03;;;;;;;11.12;100.00;95919.50;5060232;28;20024;-51
2024/03/27 00:38:05;;;;;;;3.17;2.17;;;;;;;11.01;100.00;95922.53;5052994;28;20045;-51
2024/03/27 00:40:31;;;;;;;4.18;1.77;;;;;;;10.89;100.00;95906.59;5054395;28;20024;-51
2024/03/27 00:42:56;;;;;;;4.22;2.13;;;;;;;10.84;100.00;95907.41;5054175;28;20036;-51
2024/03/27 00:45:22;;;;;;;6.15;2.33;;;;;;;10.80;100.00;95897.47;5055194;28;20045;-51
2024/03/27 00:47:48;;;;;;;4.93;2.03;;;;;;;10.84;100.00;95893.91;5048082;28;20025;-52
2024/03/27 00:50:14;;;;;;;4.68;2.03;;;;;;;10.97;100.00;95885.19;5046847;28;20032;-52
2024/03/27 00:52:39;;;;;;;3.53;2.05;;;;;;;11.00;100.00;95872.19;5058187;28;20484;-52
2024/03/27 00:55:05;;;;;;;3.28;2.25;;;;;;;11.01;100.00;95863.81;5053419;28;20025;-51
2024/03/27 00:57:30;;;;;;;3.30;2.00;;;;;;;10.96;100.00;95871.97;5060013;28;20028;-52
2024/03/27 00:59:58;;;;;;;3.42;1.80;;;;;;;10.89;100.00;95860.63;5061418;28;20491;-51
2024/03/27 01:02:24;;;;;;;4.40;2.00;;;;;;;10.93;100.00;95854.38;5051402;28;20021;-51
2024/03/27 01:04:50;;;;;;;4.63;1.98;;;;;;;10.96;100.00;95844.91;5066895;28;20036;-52
2024/03/27 01:07:16;;;;;;;4.07;1.95;;;;;;;10.85;100.00;95827.13;5054658;28;20074;-52
2024/03/27 01:09:41;;;;;;;6.68;2.15;;;;;;;10.73;100.00;95833.66;5050676;28;20027;-51
2024/03/27 01:12:07;;;;;;;8.68;2.47;;;;;;;10.65;100.00;95828.81;5060059;28;20025;-51
2024/03/27 01:14:33;;;;;;;3.78;2.08;;;;;;;10.61;100.00;95827.78;5060784;28;20073;-51
2024/03/27 01:16:58;;;;;;;5.47;2.30;;;;;;;10.41;100.00;95841.34;5055656;28;20051;-52
2024/03/27 01:19:24;;;;;;;4.55;2.28;;;;;;;10.22;100.00;95831.09;5057163;28;20035;-51
2024/03/27 01:21:50;;;;;;;7.20;2.10;;;;;;;10.13;100.00;95832.72;5062237;28;20052;-51
2024/03/27 01:24:15;;;;;;;4.82;2.40;;;;;;;10.14;100.00;95839.75;5055798;28;20032;-51
2024/03/27 01:26:41;;;;;;;6.03;2.10;;;;;;;10.02;100.00;95834.66;5066789;28;20024;-52
2024/03/27 01:29:06;;;;;;;4.93;2.15;;;;;;;9.84;100.00;95830.59;5048981;28;20083;-52
2024/03/27 01:31:32;;;;;;;7.63;2.53;;;;;;;9.65;100.00;95829.56;5050074;28;20053;-52
2024/03/27 01:33:58;;;;;;;5.32;2.75;;;;;;;9.41;100.00;95822.00;5061742;28;20372;-52
2024/03/27 01:36:23;;;;;;;3.55;2.00;;;;;;;9.20;100.00;95818.47;5057346;28;20166;-52
2024/03/27 01:38:49;;;;;;;3.65;1.83;;;;;;;9.23;100.00;95814.44;5043566;28;20028;-52
2024/03/27 01:41:15;;;;;;;3.35;1.75;;;;;;;9.29;100.00;95805.25;5057699;28;20044;-52
2024/03/27 01:43:41;;;;;;;3.10;1.50;;;;;;;9.22;100.00;95796.59;5060196;28;20030;-52
2024/03/27 01:46:09;;;;;;;3.50;1.95;;;;;;;9.12;100.00;95796.63;5056610;28;20032;-52
2024/03/27 01:48:35;;;;;;;3.65;2.15;;;;;;;9.02;100.00;95800.09;5056528;28;20024;-52
2024/03/27 01:51:01;;;;;;;5.85;2.17;;;;;;;9.13;100.00;95811.72;5065251;28;20039;-52
2024/03/27 01:53:28;;;;;;;4.28;2.17;;;;;;;9.08;100.00;95803.59;5054411;28;20027;-52
2024/03/27 01:55:53;;;;;;;3.95;2.00;;;;;;;8.95;100.00;95811.13;5063689;28;20048;-52
2024/03/27 01:58:19;;;;;;;5.78;2.20;;;;;;;8.76;100.00;95823.50;5053464;28;20397;-52
2024/03/27 02:00:44;;;;;;;8.05;2.03;;;;;;;8.61;100.00;95823.44;5056920;28;20029;-52
2024/03/27 02:03:10;;;;;;;5.97;2.10;;;;;;;8.43;100.00;95828.22;5061463;28;20476;-52
2024/03/27 02:05:36;;;;;;;6.85;2.50;;;;;;;8.29;100.00;95822.47;5057312;28;20013;-52
2024/03/27 02:08:02;;;;;;;5.53;2.45;;;;;;;8.21;100.00;95816.78;5054087;28;20107;-52
2024/03/27 02:10:28;;;;;;;6.03;2.28;;;;;;;8.13;100.00;95816.19;5050175;28;20029;-52
2024/03/27 02:12:56;;;;;;;4.32;2.35;;;;;;;8.16;100.00;95816.75;5056326;28;20036;-52
2024/03/27 02:15:21;;;;;;;6.20;2.58;;;;;;;8.08;100.00;95823.44;5052171;28;20078;-52
2024/03/27 02:17:47;;;;;;;3.42;2.17;;;;;;;7.95;100.00;95830.09;5056203;28;20032;-52
2024/03/27 02:20:12;;;;;;;3.60;2.05;;;;;;;7.80;100.00;95828.09;5061761;28;20021;-52
2024/03/27 02:22:38;;;;;;;4.43;2.50;;;;;;;7.68;100.00;95835.56;5053751;28;20037;-52
2024/03/27 02:25:06;;;;;;;4.30;1.95;;;;;;;7.62;100.00;95834.72;5062426;28;20036;-52
2024/03/27 02:27:33;;;;;;;6.55;2.47;;;;;;;7.61;100.00;95848.41;5053249;28;20027;-52
2024/03/27 02:29:58;;;;;;;4.80;1.92;;;;;;;7.50;100.00;95852.91;5061294;28;20134;-51
2024/03/27 02:32:24;;;;;;;5.07;2.50;;;;;;;7.47;100.00;95859.59;5051665;28;20025;-52
2024/03/27 02:34:50;;;;;;;3.50;1.98;;;;;;;7.48;100.00;95857.72;5052861;28;20029;-52
2024/03/27 02:37:15;;;;;;;3.70;1.90;;;;;;;7.47;100.00;95848.84;5046222;28;20024;-52
2024/03/27 02:39:41;;;;;;;4.95;2.75;;;;;;;7.48;100.00;95846.97;5053304;28;20028;-52
2024/03/27 02:42:06;;;;;;;8.90;2.35;;;;;;;7.44;100.00;95843.97;5046900;28;20116;-52
2024/03/27 02:44:32;;;;;;;5.57;1.98;;;;;;;7.42;100.00;95843.44;5052762;28;20052;-52
2024/03/27 02:46:57;;;;;;;5.32;2.67;;;;;;;7.36;100.00;95835.56;5042959;28;20392;-52
2024/03/27 02:49:23;;;;;;;8.10;3.88;;;;;;;7.37;100.00;95832.63;5060855;28;20025;-52
2024/03/27 02:51:48;;;;;;;8.60;2.60;;;;;;;7.42;100.00;95840.72;5044689;28;20104;-52
2024/03/27 02:54:13;;;;;;;4.43;2.10;;;;;;;7.39;100.00;95840.44;5044556;28;20047;-52
2024/03/27 02:56:39;;;;;;;6.28;2.40;;;;;;;7.23;100.00;95832.25;5047356;28;20028;-52
2024/03/27 02:59:05;;;;;;;5.15;2.58;;;;;;;7.19;100.00;95831.09;5049361;28;20453;-52
2024/03/27 03:01:30;;;;;;;8.52;3.00;;;;;;;7.11;100.00;95830.78;5065222;28;20020;-52
2024/03/27 03:03:56;;;;;;;5.20;2.60;;;;;;;6.98;100.00;95816.66;5049491;28;20038;-52
2024/03/27 03:06:21;;;;;;;6.68;3.10;;;;;;;6.95;100.00;95813.69;5047795;28;20032;-52
2024/03/27 03:08:47;;;;;;;4.25;2.65;;;;;;;6.95;100.00;95808.31;5053418;28;20021;-52
2024/03/27 03:11:12;;;;;;;4.70;2.70;;;;;;;6.97;100.00;95808.88;5053552;28;20025;-52
2024/03/27 03:13:38;;;;;;;7.18;2.78;;;;;;;6.95;100.00;95811.81;5048831;28;20024;-52
2024/03/27 03:16:04;;;;;;;5.97;2.50;;;;;;;6.90;100.00;95805.56;5050386;28;20031;-52
2024/03/27 03:18:29;;;;;;;4.90;2.47;;;;;;;6.81;100.00;95807.88;5045701;28;20028;-52
2024/03/27 03:21:05;;;;;;;6.13;2.60;;;;;;;6.81;100.00;95802.50;5065057;28;20372;-52
2024/03/27 03:23:31;;;;;;;11.40;2.58;;;;;;;6.80;100.00;95785.56;5048984;28;20038;-52
2024/03/27 03:25:57;;;;;;;6.07;2.05;;;;;;;6.80;100.00;95793.63;5053663;28;20469;-52
2024/03/27 03:28:23;;;;;;;4.78;2.33;;;;;;;6.86;100.00;95780.25;5061187;28;20055;-52
2024/03/27 03:30:49;;;;;;;6.45;2.70;;;;;;;6.78;100.00;95776.94;5053072;28;20434;-52
2024/03/27 03:33:14;;;;;;;3.78;2.42;;;;;;;6.71;100.00;95772.88;5053562;28;20036;-52
2024/03/27 03:35:40;;;;;;;6.43;2.70;;;;;;;6.64;100.00;95774.94;5051908;28;20077;-52
2024/03/27 03:38:05;;;;;;;4.43;2.50;;;;;;;6.48;100.00;95776.66;5054639;28;20045;-52
2024/03/27 03:40:47;;;;;;;5.90;2.95;;;;;;;6.36;100.00;95748.03;5048342;28;20020;-52
2024/03/27 03:43:13;;;;;;;11.02;3.22;;;;;;;6.22;100.00;95756.75;5051278;28;20628;-52
2024/03/27 03:45:38;;;;;;;10.73;3.20;;;;;;;6.14;100.00;95750.75;5048065;28;20032;-52
2024/03/27 03:48:05;;;;;;;4.18;2.38;;;;;;;6.10;100.00;95751.50;5052351;28;20032;-52
2024/03/27 03:50:31;;;;;;;5.32;2.75;;;;;;;6.09;100.00;95752.56;5054860;28;20028;-52
2024/03/27 03:52:56;;;;;;;4.97;2.47;;;;;;;6.05;100.00;95743.38;5054794;28;20095;-52
2024/03/27 03:55:22;;;;;;;5.35;2.78;;;;;;;6.01;100.00;95740.41;5050553;28;20071;-52
2024/03/27 03:57:47;;;;;;;15.88;2.80;;;;;;;5.87;100.00;95731.09;5051837;28;20033;-52
2024/03/27 04:00:20;;;;;;;4.53;2.50;;;;;;;5.97;100.00;95743.81;5050223;28;20037;-52
2024/03/27 04:02:47;;;;;;;5.28;2.50;;;;;;;5.96;100.00;95756.44;5044815;28;20365;-52
2024/03/27 04:05:12;;;;;;;4.78;2.80;;;;;;;5.87;100.00;95764.09;5050752;28;20029;-52
2024/03/27 04:07:38;;;;;;;4.45;2.50;;;;;;;5.85;100.00;95763.50;5057277;28;20622;-52
2024/03/27 04:10:04;;;;;;;5.40;2.92;;;;;;;5.87;100.00;95769.44;5056397;28;20040;-51
2024/03/27 04:12:30;;;;;;;5.13;2.65;;;;;;;5.98;100.00;95773.09;5056695;28;20086;-51
2024/03/27 04:14:56;;;;;;;7.00;3.10;;;;;;;6.00;100.00;95770.16;5059200;28;20044;-51
2024/03/27 04:17:22;;;;;;;6.88;2.70;;;;;;;5.94;100.00;95777.34;5050093;28;20472;-51
2024/03/27 04:19:48;;;;;;;6.63;3.00;;;;;;;5.88;100.00;95784.47;5053008;28;20050;-52
2024/03/27 04:22:14;;;;;;;4.38;3.00;;;;;;;5.90;100.00;95786.94;5054226;28;20033;-52
2024/03/27 04:24:44;;;;;;;6.10;2.60;;;;;;;5.87;100.00;95787.44;5051691;28;20044;-51
2024/03/27 04:27:13;;;;;;;5.28;2.67;;;;;;;5.81;100.00;95772.28;5049453;28;20502;-51
2024/03/27 04:29:39;;;;;;;5.47;2.28;;;;;;;5.79;100.00;95769.88;5044081;28;20033;-51
2024/03/27 04:32:05;;;;;;;3.75;2.08;;;;;;;5.80;100.00;95760.75;5047554;28;20133;-51
2024/03/27 04:34:31;;;;;;;4.20;2.30;;;;;;;5.72;100.00;95764.69;5054561;28;20028;-51
2024/03/27 04:36:57;;;;;;;6.85;2.50;;;;;;;5.62;100.00;95771.78;5047046;28;20676;-51
2024/03/27 04:39:25;;;;;;;8.98;2.40;;;;;;;5.64;100.00;95777.72;5040296;28;20024;-51
2024/03/27 04:41:53;;;;;;;3.65;2.58;;;;;;;5.63;100.00;95773.38;5066722;28;20025;-51
2024/03/27 04:44:19;;;;;;;6.15;2.60;;;;;;;5.60;100.00;95771.19;5054198;28;20021;-51
2024/03/27 04:46:45;;;;;;;5.30;2.50;;;;;;;5.57;100.00;95775.19;5053263;28;20040;-51
2024/03/27 04:49:10;;;;;;;6.25;2.38;;;;;;;5.54;100.00;95772.19;5062723;28;20024;-52
2024/03/27 04:51:36;;;;;;;5.65;2.53;;;;;;;5.57;100.00;95775.19;5057280;28;20025;-51
2024/03/27 04:54:02;;;;;;;5.10;2.50;;;;;;;5.63;100.00;95776.06;5064798;28;20154;-51
2024/03/27 04:56:28;;;;;;;5.72;2.30;;;;;;;5.59;100.00;95775.75;5053617;28;20070;-51
2024/03/27 04:58:53;;;;;;;4.80;2.75;;;;;;;5.62;100.00;95753.00;5051825;28;20028;-51
2024/03/27 05:01:19;;;;;;;4.95;2.50;;;;;;;5.69;100.00;95759.00;5060229;28;20036;-51
2024/03/27 05:03:44;;;;;;;3.35;2.15;;;;;;;5.59;100.00;95735.53;5057250;28;20539;-51
2024/03/27 05:06:10;;;;;;;4.57;2.50;;;;;;;5.64;100.00;95740.97;5050262;28;20033;-51
2024/03/27 05:08:36;;;;;;;6.40;3.53;;;;;;;5.57;100.00;95736.84;5050028;28;20392;-51
2024/03/27 05:11:01;;;;;;;4.53;2.70;;;;;;;5.63;100.00;95723.28;5067342;28;20016;-51
2024/03/27 05:13:27;;;;;;;5.35;3.13;;;;;;;5.63;100.00;95725.13;5051880;28;20036;-51
2024/03/27 05:15:52;;;;;;;7.28;3.45;;;;;;;5.62;100.00;95726.19;5050723;28;20793;-52
2024/03/27 05:18:17;;;;;;;4.97;2.80;;;;;;;5.64;100.00;95734.78;5055319;28;20037;-51
2024/03/27 05:20:43;;;;;;;7.32;2.70;;;;;;;5.77;100.00;95731.75;5058263;28;20027;-51
2024/03/27 05:23:08;;;;;;;3.97;2.78;;;;;;;5.65;100.00;95725.69;5062641;28;20025;-51
2024/03/27 05:25:35;;;;;;;5.75;2.90;;;;;;;5.53;100.00;95715.06;5047917;28;20021;-51
2024/03/27 05:28:00;;;;;;;6.53;2.92;;;;;;;5.54;100.00;95742.69;5066782;28;20401;-51
2024/03/27 05:30:26;;;;;;;4.78;2.70;;;;;;;5.48;100.00;95731.91;5056480;28;20025;-51
2024/03/27 05:32:51;;;;;;;5.85;2.67;;;;;;;5.52;100.00;95720.69;5056442;28;20379;-51
2024/03/27 05:35:17;;;;;;;4.90;2.45;;;;;;;5.48;100.00;95699.72;5051316;28;20024;-51
2024/03/27 05:37:43;;;;;;;5.20;2.88;;;;;;;5.51;100.00;95703.78;5051690;28;20029;-52
2024/03/27 05:40:10;;;;;;;5.57;2.65;;;;;;;5.52;100.00;95709.94;5051826;28;20033;-52
2024/03/27 05:42:35;;;;;;;5.85;2.95;;;;;;;5.58;100.00;95709.78;5051855;28;20028;-51
2024/03/27 05:45:01;;;;;;;5.88;3.38;;;;;;;5.68;100.00;95715.25;5054295;28;20383;-51
2024/03/27 05:47:26;;;;;;;7.15;3.50;;;;;;;5.62;100.00;95713.56;5050198;28;20468;-51
2024/03/27 05:49:52;;;;;;;6.55;3.55;;;;;;;5.77;100.00;95706.81;5049978;28;21467;-51
2024/03/27 05:52:17;;;;;;;8.75;3.70;;;;;;;5.78;100.00;95679.72;5068227;23;20106;-76
2024/03/27 05:54:42;;;;;;;11.80;3.85;;;;;;;5.95;100.00;95692.28;5031910;28;20017;-77
2024/03/27 05:57:08;;;;;;;12.45;3.15;;;;;;;6.09;100.00;95685.47;5042222;28;20032;-76
2024/03/27 05:59:34;;;;;;;5.28;3.17;;;;;;;6.04;100.00;95672.00;5052134;28;20059;-85
2024/03/27 06:01:59;;;;;;;8.75;2.90;;;;;;;6.05;100.00;95703.97;5059980;28;20099;-78
2024/03/27 06:04:25;;;;;;;5.75;3.72;;;;;;;5.94;100.00;95680.75;5044835;28;20216;-77
2024/03/27 06:06:51;;;;;;;5.85;3.40;;;;;;;5.89;100.00;95700.25;5042300;28;20063;-77
2024/03/27 06:09:17;;;;;;;6.95;3.70;;;;;;;5.74;100.00;95689.34;5064594;28;20067;-78
2024/03/27 06:11:43;;;;;;;6.47;3.10;;;;;;;5.65;100.00;95690.81;5044249;28;20320;-77
2024/03/27 06:14:08;;;;;;;8.15;3.53;;;;;;;5.79;100.00;95688.56;5043928;28;20032;-77
2024/03/27 06:16:34;;;;;;;5.90;3.13;;;;;;;5.77;100.00;95682.66;5043186;28;20021;-78
2024/03/27 06:19:00;;;;;;;8.40;2.97;;;;;;;5.78;100.00;95666.31;5037500;28;20032;-78
2024/03/27 06:21:25;;;;;;;5.30;3.05;;;;;;;5.97;100.00;95680.22;5038959;28;20021;-77
2024/03/27 06:23:50;;;;;;;8.40;3.25;;;;;;;6.08;100.00;95682.00;5054634;28;20029;-78
2024/03/27 06:26:16;;;;;;;6.53;2.58;;;;;;;6.06;100.00;95673.38;5033000;28;20229;-78
2024/03/27 06:28:41;;;;;;;10.95;2.90;;;;;;;6.12;100.00;95676.91;5039807;28;20029;-78
2024/03/27 06:31:08;;;;;;;7.97;3.55;;;;;;;6.33;100.00;95699.41;5038099;28;20079;-78
2024/03/27 06:33:34;;;;;;;8.50;3.83;;;;;;;6.33;100.00;95681.44;5036266;28;20036;-78
2024/03/27 06:35:59;;;;;;;5.65;3.00;;;;;;;6.38;100.00;95661.06;5042720;28;20021;-78
2024/03/27 06:38:25;;;;;;;8.23;3.00;;;;;;;6.62;100.00;95662.38;5053569;28;20059;-78
2024/03/27 06:40:51;;;;;;;6.35;3.38;;;;;;;6.66;100.00;95676.91;5034569;28;20021;-78
2024/03/27 06:43:17;;;;;;;7.53;3.80;;;;;;;6.83;100.00;95692.09;5031535;28;20108;-78
2024/03/27 06:45:42;;;;;;;9.82;3.47;;;;;;;6.97;100.00;95685.25;5050300;28;20227;-78
2024/03/27 06:48:11;;;;;;;8.30;2.85;;;;;;;7.02;100.00;95666.44;5055326;28;20092;-74
2024/03/27 06:50:36;;;;;;;5.30;3.17;;;;;;;7.27;100.00;95684.63;5048970;28;20334;-75
2024/03/27 06:53:02;;;;;;;8.05;3.22;;;;;;;7.28;100.00;95690.81;5032178;28;20093;-75
2024/03/27 06:55:27;;;;;;;12.15;4.28;;;;;;;7.09;100.00;95680.47;5039281;28;20052;-75
2024/03/27 06:57:53;;;;;;;11.43;4.57;;;;;;;7.09;100.00;95672.41;5058932;28;20032;-75
2024/03/27 07:00:18;;;;;;;9.13;3.20;;;;;;;7.10;100.00;95668.66;5042934;28;20025;-75
2024/03/27 07:02:45;;;;;;;8.27;3.75;;;;;;;7.18;100.00;95659.31;5037147;28;20347;-77
2024/03/27 07:05:11;;;;;;;6.82;3.88;;;;;;;7.40;100.00;95664.53;5058325;28;20049;-77
2024/03/27 07:07:37;;;;;;;8.68;3.63;;;;;;;7.35;100.00;95661.81;5036663;28;20032;-86
2024/03/27 07:10:03;;;;;;;7.22;3.30;;;;;;;7.45;100.00;95665.38;5057893;28;20028;-87
2024/03/27 07:12:28;;;;;;;6.78;3.53;;;;;;;7.56;100.00;95671.63;5045486;28;20017;-77
2024/03/27 07:14:54;;;;;;;8.02;3.00;;;;;;;7.54;100.00;95665.69;5044128;28;20020;-76
2024/03/27 07:17:19;;;;;;;8.48;3.17;;;;;;;7.79;100.00;95678.47;5058221;28;20022;-87
2024/03/27 07:19:48;;;;;;;8.82;3.15;;;;;;;8.00;100.00;95678.56;5060946;28;20024;-79
2024/03/27 07:22:16;;;;;;;10.13;2.87;;;;;;;8.01;100.00;95672.09;5062701;28;20056;-81
2024/03/27 07:24:42;;;;;;;9.37;3.17;;;;;;;8.15;100.00;95684.00;5053745;28;20313;-75
2024/03/27 07:27:07;;;;;;;7.70;4.70;;;;;;;8.46;100.00;95687.63;5065076;23;20204;-59
2024/03/27 07:29:35;;;;;;;13.90;5.47;;;;;;;8.67;100.00;95682.22;5028931;28;20386;-59
2024/03/27 07:32:00;;;;;;;9.35;4.93;;;;;;;8.82;100.00;95679.56;5025655;28;20040;-60
2024/03/27 07:34:26;;;;;;;10.45;5.55;;;;;;;8.75;100.00;95652.03;5029744;28;20013;-59
2024/03/27 07:36:51;;;;;;;12.13;6.53;;;;;;;9.00;100.00;95672.81;5009629;28;20024;-60
2024/03/27 07:39:20;;;;;;;11.25;5.63;;;;;;;9.24;100.00;95667.66;5012688;28;20109;-59
2024/03/27 07:41:46;;;;;;;9.57;5.53;;;;;;;9.36;100.00;95665.50;5005163;28;20389;-59
2024/03/27 07:44:11;;;;;;;8.73;4.95;;;;;;;9.36;100.00;95664.69;5011045;28;20034;-59
2024/03/27 07:46:37;;;;;;;14.40;5.60;;;;;;;9.40;100.00;95671.94;5016771;28;20037;-59
2024/03/27 07:49:02;;;;;;;8.00;5.50;;;;;;;9.15;100.00;95680.09;5012004;28;20041;-59
2024/03/27 07:51:27;;;;;;;9.68;5.20;;;;;;;9.19;100.00;95681.97;5009366;28;20026;-59
2024/03/27 07:53:53;;;;;;;8.40;4.93;;;;;;;9.40;100.00;95673.84;4992905;28;20512;-59
2024/03/27 07:56:18;;;;;;;15.35;5.53;;;;;;;9.44;100.00;95691.13;5006741;28;20031;-59
2024/03/27 07:58:44;;;;;;;9.32;5.75;;;;;;;9.48;100.00;95692.19;5011234;28;20044;-59
2024/03/27 08:01:09;;;;;;;11.35;5.70;;;;;;;9.53;100.00;95689.47;5007332;28;20024;-59
2024/03/27 08:03:35;;;;;;;8.93;4.70;;;;;;;10.13;100.00;95675.25;5005141;28;20506;-59
2024/03/27 08:06:01;;;;;;;10.07;5.53;;;;;;;10.68;100.00;95671.44;5005327;28;20065;-59
2024/03/27 08:08:27;;;;;;;14.52;5.65;;;;;;;11.23;100.00;95662.38;5005414;28;21502;-59
2024/03/27 08:10:56;;;;;;;10.70;4.90;;;;;;;12.65;100.00;95672.66;5008346;28;20112;-59
2024/03/27 08:13:22;;;;;;;8.23;4.40;;;;;;;15.87;100.00;95674.25;5007297;28;20040;-59
2024/03/27 08:15:48;;;;;;;9.52;4.13;;;;;;;19.58;89.78;95671.22;5005663;28;20037;-59
2024/03/27 08:18:13;;;;;;;10.88;4.03;;;;;;;23.18;74.44;95690.13;5009672;28;20025;-60
2024/03/27 08:20:38;;;;;;;9.52;4.70;;;;;;;23.69;58.17;95697.50;5016455;28;20057;-59
2024/03/27 08:23:04;;;;;;;9.15;4.15;;;;;;;23.44;57.55;95672.16;5013413;28;20470;-59
2024/03/27 08:25:32;;;;;;;9.25;4.25;;;;;;;25.49;55.77;95663.28;5011504;28;20083;-60
2024/03/27 08:27:58;;;;;;;6.43;3.60;;;;;;;24.43;52.71;95664.09;5017244;28;20025;-61
2024/03/27 08:30:24;;;;;;;7.60;3.80;;;;;;;24.95;51.70;95645.16;5020188;28;20044;-60
2024/03/27 08:32:50;;;;;;;8.65;3.90;;;;;;;28.14;47.78;95642.94;5014083;28;20029;-60
2024/03/27 08:35:15;;;;;;;5.35;3.58;;;;;;;30.07;44.85;95635.31;5010103;28;20117;-60
2024/03/27 08:37:43;;;;;;;5.00;2.80;;;;;;;32.48;41.24;95625.91;5008109;28;20477;-61
2024/03/27 08:40:09;;;;;;;8.63;3.45;;;;;;;32.33;40.00;95622.50;5012445;28;20026;-61
2024/03/27 08:42:35;;;;;;;5.63;3.10;;;;;;;33.21;38.99;95615.03;5011083;28;20485;-62
2024/03/27 08:45:02;;;;;;;6.65;3.72;;;;;;;32.67;37.55;95614.00;5015518;28;20029;-61
2024/03/27 08:47:28;;;;;;;9.93;3.30;;;;;;;31.52;38.23;95611.28;5012585;28;20034;-61
2024/03/27 08:49:54;;;;;;;4.65;2.90;;;;;;;31.10;39.14;95622.53;5011956;28;20057;-61
2024/03/27 08:52:19;;;;;;;4.72;3.28;;;;;;;28.95;39.74;95623.03;5013444;28;20026;-62
2024/03/27 08:54:44;;;;;;;4.85;3.25;;;;;;;29.25;39.87;95631.72;5012675;28;20018;-61
2024/03/27 08:57:10;;;;;;;5.85;3.00;;;;;;;29.38;40.29;95629.28;5008125;28;20030;-61
2024/03/27 08:59:35;;;;;;;6.82;3.50;;;;;;;28.51;40.69;95625.09;5015306;28;20091;-61
2024/03/27 09:02:02;;;;;;;8.18;3.60;;;;;;;29.27;40.27;95621.00;5007595;28;20852;-61
2024/03/27 09:04:27;;;;;;;7.72;3.20;;;;;;;29.02;41.03;95634.94;5011201;28;20065;-57
2024/03/27 09:06:54;;;;;;;6.32;3.20;;;;;;;28.12;41.88;95639.75;5013285;28;20080;-56
2024/03/27 09:09:19;;;;;;;5.13;3.28;;;;;;;28.90;40.78;95652.09;5006390;28;20034;-58
2024/03/27 09:11:45;;;;;;;5.35;3.47;;;;;;;29.21;40.05;95636.53;5010197;28;20034;-57
2024/03/27 09:14:10;;;;;;;5.13;3.00;;;;;;;30.11;40.16;95641.69;5008156;28;20029;-57
2024/03/27 09:16:35;;;;;;;5.03;2.92;;;;;;;32.42;38.09;95636.78;5011224;28;20143;-57
2024/03/27 09:19:01;;;;;;;7.97;2.60;;;;;;;32.39;37.08;95637.63;5008418;28;20029;-57
2024/03/27 09:21:27;;;;;;;4.35;2.97;;;;;;;32.07;36.06;95650.09;5012300;28;20040;-57
2024/03/27 09:23:52;;;;;;;7.32;2.83;;;;;;;34.36;35.45;95655.50;5013674;28;20118;-57
2024/03/27 09:26:18;;;;;;;8.27;2.58;;;;;;;32.89;34.95;95666.81;5009632;28;20038;-57
2024/03/27 09:28:43;;;;;;;6.60;2.42;;;;;;;33.29;34.45;95676.09;5014661;28;20108;-57
2024/03/27 09:31:09;;;;;;;4.40;2.67;;;;;;;33.25;34.20;95669.81;5012186;28;20109;-57
2024/03/27 09:33:34;;;;;;;4.38;2.75;;;;;;;27.93;37.09;95690.16;5006788;28;20044;-57
2024/03/27 09:36:00;;;;;;;5.30;2.70;;;;;;;30.38;36.82;95688.53;5013292;28;20033;-57
2024/03/27 09:38:25;;;;;;;3.78;2.85;;;;;;;31.42;35.84;95680.84;5013639;28;20034;-57
2024/03/27 09:40:57;;;;;;;4.38;2.78;;;;;;;33.15;35.42;95673.59;5013575;28;20339;-56
2024/03/27 09:43:24;;;;;;;6.32;2.53;;;;;;;33.34;34.73;95672.81;5009653;28;20037;-56
2024/03/27 09:46:04;;;;;;;3.22;2.63;;;;;;;31.87;34.43;95677.13;5012586;28;20049;-57
2024/03/27 09:48:30;;;;;;;3.22;2.47;;;;;;;33.09;34.15;95678.91;5011828;28;20036;-51
2024/03/27 09:50:57;;;;;;;5.25;2.67;;;;;;;32.42;34.40;95689.16;5015362;28;20018;-51
2024/03/27 09:53:23;;;;;;;4.78;3.00;;;;;;;32.04;34.67;95694.88;5005870;28;20026;-51
2024/03/27 09:55:50;;;;;;;3.83;2.78;;;;;;;33.07;34.78;95691.75;5011722;28;20033;-51
2024/03/27 09:58:17;;;;;;;5.50;2.65;;;;;;;33.50;33.55;95693.75;5008497;28;20501;-51
2024/03/27 10:00:43;;;;;;;7.28;2.70;;;;;;;34.41;33.76;95703.47;5007473;28;20442;-51
2024/03/27 10:03:08;;;;;;;4.13;2.60;;;;;;;34.59;32.58;95703.09;5011498;28;20044;-51
2024/03/27 10:05:34;;;;;;;4.38;2.50;;;;;;;33.02;34.18;95709.84;5006982;28;20021;-51
2024/03/27 10:08:03;;;;;;;6.57;3.05;;;;;;;29.42;36.65;95724.78;5008737;28;20018;-51
2024/03/27 10:10:29;;;;;;;6.25;2.92;;;;;;;30.46;36.07;95712.38;5011135;28;20034;-51
2024/03/27 10:12:55;;;;;;;5.15;2.72;;;;;;;32.65;35.58;95700.41;5005096;28;20037;-51
2024/03/27 10:15:21;;;;;;;7.35;2.70;;;;;;;33.62;34.07;95718.38;5006667;28;20037;-51
2024/03/27 10:17:47;;;;;;;3.78;2.72;;;;;;;32.80;34.89;95723.34;5004288;28;20034;-51
2024/03/27 10:20:12;;;;;;;4.57;2.80;;;;;;;32.28;34.99;95732.13;5013562;28;20026;-51
2024/03/27 10:22:39;;;;;;;3.90;3.10;;;;;;;31.10;35.85;95742.63;5012013;28;20366;-51
2024/03/27 10:25:05;;;;;;;8.10;2.88;;;;;;;28.77;38.65;95737.16;5010987;28;20030;-51
2024/03/27 10:27:32;;;;;;;6.70;3.10;;;;;;;29.09;38.47;95744.72;5008066;28;20109;-51
2024/03/27 10:29:58;;;;;;;4.35;2.85;;;;;;;31.73;36.34;95742.38;5009821;28;20026;-51
2024/03/27 10:32:25;;;;;;;5.20;3.40;;;;;;;32.85;34.57;95741.69;5009989;28;20108;-51
2024/03/27 10:34:50;;;;;;;5.97;2.72;;;;;;;32.99;35.29;95737.84;5012256;28;20127;-50
2024/03/27 10:37:17;;;;;;;4.93;3.20;;;;;;;32.61;35.06;95727.66;5009866;28;20081;-50
2024/03/27 10:39:49;;;;;;;5.10;3.33;;;;;;;29.46;37.67;95742.25;5007864;28;20030;-50
2024/03/27 10:42:23;;;;;;;5.55;3.60;;;;;;;25.99;41.48;95757.22;5002046;28;20033;-50
2024/03/27 10:44:53;;;;;;;7.18;4.22;;;;;;;23.73;44.92;95764.63;5010742;28;20065;-50
2024/03/27 10:47:23;;;;;;;6.35;4.05;;;;;;;23.80;46.05;95763.97;5016190;28;20760;-50
2024/03/27 10:49:51;;;;;;;6.93;4.07;;;;;;;22.84;48.72;95768.91;5011816;28;20045;-50
2024/03/27 10:52:18;;;;;;;8.05;4.50;;;;;;;22.49;50.08;95772.38;5005264;28;20512;-50
2024/03/27 10:54:48;;;;;;;5.78;4.10;;;;;;;23.34;50.84;95774.78;5008575;28;20072;-49
2024/03/27 10:57:17;;;;;;;10.75;4.13;;;;;;;23.90;49.84;95776.41;5010062;28;20504;-50
2024/03/27 10:59:44;;;;;;;6.45;4.25;;;;;;;24.26;49.17;95781.47;5009658;28;20064;-50
2024/03/27 11:02:11;;;;;;;8.00;3.90;;;;;;;24.87;48.95;95770.69;5009141;28;20029;-50
2024/03/27 11:04:40;;;;;;;8.55;4.03;;;;;;;24.23;50.97;95767.56;5011144;28;20026;-50
2024/03/27 11:07:15;;;;;;;5.20;3.50;;;;;;;24.41;51.73;95787.22;5007510;28;20038;-50
2024/03/27 11:09:49;;;;;;;7.35;3.45;;;;;;;25.19;50.97;95792.53;5011389;28;20084;-50
2024/03/27 11:12:17;;;;;;;9.35;3.85;;;;;;;26.36;48.61;95804.38;5002377;28;20022;-50
2024/03/27 11:14:48;;;;;;;7.63;3.60;;;;;;;27.04;46.58;95795.94;5014264;28;20018;-50
2024/03/27 11:17:13;;;;;;;8.93;3.55;;;;;;;26.49;47.46;95777.19;5011766;28;20033;-50
2024/03/27 11:19:41;;;;;;;7.90;3.40;;;;;;;27.87;46.09;95761.16;5006985;28;20026;-51
2024/03/27 11:22:12;;;;;;;4.37;3.20;;;;;;;27.31;47.03;95774.34;5009458;28;20033;-51
2024/03/27 11:24:39;;;;;;;4.65;3.05;;;;;;;25.00;49.74;95794.19;5006992;28;20271;-50
2024/03/27 11:27:04;;;;;;;4.90;3.70;;;;;;;22.52;52.81;95801.97;4991615;28;20120;-51